Time;durP1;ratioP1;P1;durP2;ratioP2;P2;SDS_P1;SDS_P2;PMS_P1;PMS_P2;Temp;Humidity;BMP_temperature;BMP_pressure;BME280_temperature;BME280_humidity;BME280_pressure;Samples;Min_cycle;Max_cycle;Signal;HPM_P1;HPM_P2
2023/10/16 00:01:04;;;;;;;5.93;1.50;;;7.30;99.90;;;;;;5093180;28;20131;-81
2023/10/16 00:03:31;;;;;;;2.13;1.30;;;7.30;99.90;;;;;;5092447;28;20420;-81
2023/10/16 00:05:56;;;;;;;4.70;1.38;;;7.30;99.90;;;;;;5093151;28;20073;-81
2023/10/16 00:08:22;;;;;;;2.13;1.10;;;7.20;99.90;;;;;;5093835;28;20028;-79
2023/10/16 00:10:58;;;;;;;3.53;1.42;;;7.10;99.90;;;;;;5093075;28;20020;-81
2023/10/16 00:13:28;;;;;;;2.67;2.03;;;7.10;99.90;;;;;;5092559;28;20077;-81
2023/10/16 00:15:58;;;;;;;2.55;1.48;;;7.00;99.90;;;;;;5093934;28;20461;-82
2023/10/16 00:18:26;;;;;;;2.90;1.23;;;7.00;99.90;;;;;;5092467;28;20047;-80
2023/10/16 00:20:55;;;;;;;6.38;1.55;;;7.00;99.90;;;;;;5092649;28;20071;-82
2023/10/16 00:23:30;;;;;;;3.90;1.50;;;7.00;99.90;;;;;;5093668;28;20492;-82
2023/10/16 00:25:58;;;;;;;1.75;1.30;;;7.00;99.90;;;;;;5093730;28;20064;-82
2023/10/16 00:28:23;;;;;;;3.35;1.40;;;7.00;99.90;;;;;;5092097;28;20053;-80
2023/10/16 00:30:51;;;;;;;4.40;1.55;;;7.00;99.90;;;;;;5093048;28;20074;-82
2023/10/16 00:33:16;;;;;;;1.63;1.00;;;7.00;99.90;;;;;;5092783;28;20042;-82
2023/10/16 00:35:45;;;;;;;2.10;1.15;;;6.80;99.90;;;;;;5091977;28;20131;-82
2023/10/16 00:38:14;;;;;;;3.40;1.10;;;6.90;99.90;;;;;;5092859;28;20028;-82
2023/10/16 00:43:28;;;;;;;2.65;1.13;;;6.80;99.90;;;;;;5093081;28;20089;-81
2023/10/16 00:46:02;;;;;;;2.03;1.30;;;6.70;99.90;;;;;;5092460;28;20044;-81
2023/10/16 00:48:28;;;;;;;4.65;1.30;;;6.60;99.90;;;;;;5093225;28;20024;-81
2023/10/16 00:50:54;;;;;;;2.17;1.42;;;6.50;99.90;;;;;;5092700;28;20031;-82
2023/10/16 00:53:26;;;;;;;2.17;0.93;;;6.60;99.90;;;;;;5092725;28;20473;-83
2023/10/16 00:55:55;;;;;;;3.30;1.55;;;6.50;99.90;;;;;;5092741;28;20024;-82
2023/10/16 00:58:21;;;;;;;4.10;1.25;;;6.50;99.90;;;;;;5092552;28;20054;-82
2023/10/16 01:00:48;;;;;;;4.80;1.55;;;6.50;99.90;;;;;;5091876;28;20484;-81
2023/10/16 01:03:14;;;;;;;3.47;1.17;;;6.60;99.90;;;;;;5092341;28;20036;-82
2023/10/16 01:05:42;;;;;;;1.98;1.23;;;6.60;99.90;;;;;;5092012;28;20064;-82
2023/10/16 01:08:09;;;;;;;1.70;1.00;;;6.70;99.90;;;;;;5093542;28;20023;-82
2023/10/16 01:10:37;;;;;;;2.38;1.20;;;6.80;99.90;;;;;;5092223;28;20020;-82
2023/10/16 01:13:08;;;;;;;6.15;1.65;;;6.80;99.90;;;;;;5097182;28;20035;-82
2023/10/16 01:15:40;;;;;;;1.67;1.10;;;6.80;99.90;;;;;;5096556;28;20024;-84
2023/10/16 01:18:14;;;;;;;4.05;1.20;;;6.70;99.90;;;;;;5096178;28;20177;-82
2023/10/16 01:20:46;;;;;;;2.78;1.50;;;6.70;99.90;;;;;;5095926;28;20020;-82
2023/10/16 01:23:11;;;;;;;;;;;6.70;99.90;;;;;;5097424;28;20032;-83
2023/10/16 01:25:37;;;;;;;1.65;1.02;;;6.70;99.90;;;;;;5095577;28;19932;-82
2023/10/16 01:28:04;;;;;;;4.45;1.52;;;6.70;99.90;;;;;;5096124;28;20028;-82
2023/10/16 01:30:30;;;;;;;2.97;1.30;;;6.70;99.90;;;;;;5095491;28;20058;-82
2023/10/16 01:32:55;;;;;;;3.33;1.40;;;6.60;99.90;;;;;;5095919;28;20028;-82
2023/10/16 01:35:21;;;;;;;4.22;1.33;;;6.40;99.90;;;;;;5096812;28;20058;-82
2023/10/16 01:37:47;;;;;;;2.30;1.20;;;6.30;99.90;;;;;;5095396;28;20175;-82
2023/10/16 01:40:21;;;;;;;2.97;1.25;;;6.30;99.90;;;;;;5095913;28;20538;-82
2023/10/16 01:42:53;;;;;;;5.40;1.20;;;6.30;99.90;;;;;;5095421;28;20282;-83
2023/10/16 01:45:20;;;;;;;;;;;6.20;99.90;;;;;;5097390;28;20039;-83
2023/10/16 01:47:47;;;;;;;4.88;1.80;;;6.00;99.90;;;;;;5095099;28;19904;-83
2023/10/16 01:50:21;;;;;;;1.80;1.30;;;6.00;99.90;;;;;;5095727;28;20024;-83
2023/10/16 01:52:48;;;;;;;2.05;1.10;;;6.20;99.90;;;;;;5095004;28;20060;-83
2023/10/16 01:55:16;;;;;;;1.73;1.00;;;6.20;99.90;;;;;;5095551;28;20027;-83
2023/10/16 01:57:44;;;;;;;3.03;1.40;;;6.30;99.90;;;;;;5095087;28;20032;-83
2023/10/16 02:00:16;;;;;;;1.90;1.20;;;6.30;99.90;;;;;;5095466;28;20028;-82
2023/10/16 02:02:43;;;;;;;2.75;1.10;;;6.30;99.90;;;;;;5094844;28;20024;-83
2023/10/16 02:05:11;;;;;;;2.00;1.23;;;6.30;99.90;;;;;;5095219;28;20035;-83
2023/10/16 02:07:41;;;;;;;2.08;1.10;;;6.20;99.90;;;;;;5096053;28;20024;-83
2023/10/16 02:10:12;;;;;;;3.28;1.83;;;6.20;99.90;;;;;;5096400;28;20081;-83
2023/10/16 02:12:38;;;;;;;2.50;1.42;;;6.20;99.90;;;;;;5094998;28;20055;-82
2023/10/16 02:15:06;;;;;;;2.85;1.02;;;6.20;99.90;;;;;;5095124;28;20538;-83
2023/10/16 02:17:32;;;;;;;2.30;1.17;;;6.30;99.90;;;;;;5094748;28;20130;-82
2023/10/16 02:19:58;;;;;;;2.25;1.10;;;6.30;99.90;;;;;;5095882;28;20024;-83
2023/10/16 02:22:23;;;;;;;2.38;1.30;;;6.30;99.90;;;;;;5094001;28;20518;-83
2023/10/16 02:24:50;;;;;;;1.42;0.90;;;6.30;99.90;;;;;;5095109;28;20595;-83
2023/10/16 02:27:18;;;;;;;2.45;1.38;;;6.20;99.90;;;;;;5094902;28;20045;-81
2023/10/16 02:29:52;;;;;;;1.65;1.23;;;6.30;99.90;;;;;;5094367;28;20024;-81
2023/10/16 02:32:17;;;;;;;3.23;1.27;;;6.30;99.90;;;;;;5095051;28;20443;-81
2023/10/16 02:34:43;;;;;;;3.33;1.40;;;6.10;99.90;;;;;;5094051;28;20044;-81
2023/10/16 02:37:14;;;;;;;4.38;1.30;;;6.10;99.90;;;;;;5095811;28;20480;-81
2023/10/16 02:39:41;;;;;;;2.25;0.95;;;6.10;99.90;;;;;;5095512;28;20027;-81
2023/10/16 02:42:14;;;;;;;2.40;1.40;;;6.00;99.90;;;;;;5095652;28;20016;-81
2023/10/16 02:44:42;;;;;;;3.43;1.50;;;6.00;99.90;;;;;;5093924;28;20131;-82
2023/10/16 02:47:13;;;;;;;4.83;1.30;;;6.10;99.90;;;;;;5095385;28;20075;-82
2023/10/16 02:49:47;;;;;;;2.15;1.33;;;6.10;99.90;;;;;;5093949;28;20449;-83
2023/10/16 02:52:14;;;;;;;3.53;1.30;;;6.00;99.90;;;;;;5094723;28;20055;-83
2023/10/16 02:54:40;;;;;;;5.35;1.30;;;6.10;99.90;;;;;;5076639;28;20029;-82
2023/10/16 02:57:06;;;;;;;2.53;1.30;;;6.00;99.90;;;;;;5074291;28;20428;-82
2023/10/16 02:59:33;;;;;;;3.13;1.13;;;6.00;99.90;;;;;;5073672;28;20457;-80
2023/10/16 03:02:00;;;;;;;2.83;1.30;;;5.90;99.90;;;;;;5075045;28;20067;-82
2023/10/16 03:04:27;;;;;;;2.92;1.27;;;5.80;99.90;;;;;;5074676;28;20090;-82
2023/10/16 03:06:54;;;;;;;2.30;1.70;;;5.80;99.90;;;;;;5074411;28;20027;-82
2023/10/16 03:09:25;;;;;;;2.00;1.30;;;5.80;99.90;;;;;;5073760;28;20457;-82
2023/10/16 03:12:10;;;;;;;2.30;1.00;;;5.80;99.90;;;;;;5073260;28;20025;-82
2023/10/16 03:14:45;;;;;;;3.35;1.55;;;5.70;99.90;;;;;;5073506;28;20462;-81
2023/10/16 03:17:22;;;;;;;2.65;1.45;;;5.70;99.90;;;;;;5074837;28;20037;-82
2023/10/16 03:19:48;;;;;;;5.65;1.50;;;5.70;99.90;;;;;;5074309;28;20021;-82
2023/10/16 03:22:16;;;;;;;3.10;1.33;;;5.70;99.90;;;;;;5073954;28;20024;-83
2023/10/16 03:24:43;;;;;;;3.28;1.25;;;5.80;99.90;;;;;;5073011;28;20038;-82
2023/10/16 03:27:08;;;;;;;3.33;1.20;;;5.90;99.90;;;;;;5073634;28;20024;-82
2023/10/16 03:29:35;;;;;;;2.73;1.30;;;5.70;99.90;;;;;;5073204;28;20484;-81
2023/10/16 03:32:02;;;;;;;2.90;1.38;;;5.60;99.90;;;;;;5073438;28;20066;-82
2023/10/16 03:34:28;;;;;;;2.67;1.00;;;5.60;99.90;;;;;;5072945;28;20044;-83
2023/10/16 03:37:01;;;;;;;3.00;1.43;;;5.70;99.90;;;;;;5072810;28;20198;-82
2023/10/16 03:39:26;;;;;;;2.53;1.30;;;5.70;99.90;;;;;;5073463;28;20101;-83
2023/10/16 03:41:52;;;;;;;3.73;1.20;;;5.70;99.90;;;;;;5073842;28;20056;-82
2023/10/16 03:44:19;;;;;;;3.57;1.73;;;5.70;99.90;;;;;;5073321;28;20040;-82
2023/10/16 03:46:46;;;;;;;2.03;1.27;;;5.70;99.90;;;;;;5073577;28;20492;-82
2023/10/16 03:49:14;;;;;;;3.87;1.37;;;5.70;99.90;;;;;;5073085;28;20496;-82
2023/10/16 03:51:40;;;;;;;2.77;1.40;;;5.70;99.90;;;;;;5072736;28;20123;-82
2023/10/16 03:54:06;;;;;;;4.37;1.23;;;5.60;99.90;;;;;;5074136;28;20063;-82
2023/10/16 03:56:31;;;;;;;3.57;1.30;;;5.60;99.90;;;;;;5073092;28;20032;-82
2023/10/16 03:58:57;;;;;;;3.60;1.40;;;5.50;99.90;;;;;;5072783;28;20115;-82
2023/10/16 04:01:27;;;;;;;4.00;1.80;;;5.60;99.90;;;;;;5073174;28;20035;-83
2023/10/16 04:04:03;;;;;;;2.03;1.10;;;5.60;99.90;;;;;;5072500;28;20094;-82
2023/10/16 04:06:30;;;;;;;2.30;1.40;;;5.50;99.90;;;;;;5073102;28;20036;-81
2023/10/16 04:08:58;;;;;;;2.27;1.53;;;5.50;99.90;;;;;;5072491;28;20203;-82
2023/10/16 04:11:24;;;;;;;2.80;1.50;;;5.50;99.90;;;;;;5073826;28;20488;-82
2023/10/16 04:13:52;;;;;;;2.30;1.30;;;5.40;99.90;;;;;;5072319;28;20035;-82
2023/10/16 04:17:24;;;;;;;3.40;1.70;;;5.40;99.90;;;;;;5074076;28;20028;-82
2023/10/16 04:21:44;;;;;;;2.20;1.53;;;5.40;99.90;;;;;;5073388;28;20029;-83
2023/10/16 04:29:45;;;;;;;4.33;1.57;;;5.30;99.90;;;;;;5073974;28;20028;-82
2023/10/16 04:32:40;;;;;;;2.90;1.30;;;5.40;99.90;;;;;;5073067;28;20059;-81
2023/10/16 04:37:55;;;;;;;2.83;1.63;;;5.30;99.90;;;;;;5073333;28;20067;-82
2023/10/16 04:42:02;;;;;;;1.90;1.40;;;5.30;99.90;;;;;;5073013;28;20075;-83
2023/10/16 04:43:37;;;;;;;4.73;2.00;;;5.30;99.90;;;;;;5073150;28;20036;-83
2023/10/16 04:46:23;;;;;;;3.33;1.70;;;5.30;99.90;;;;;;5073512;28;20028;-83
2023/10/16 04:48:50;;;;;;;3.83;1.50;;;5.30;99.90;;;;;;5075928;28;20028;-81
2023/10/16 04:51:17;;;;;;;5.97;1.60;;;5.30;99.90;;;;;;5076556;28;20115;-81
2023/10/16 04:54:04;;;;;;;3.17;1.53;;;5.30;99.90;;;;;;5076264;28;20039;-82
2023/10/16 04:56:57;;;;;;;3.30;1.60;;;5.20;99.90;;;;;;5076470;28;20046;-82
2023/10/16 04:59:58;;;;;;;2.30;1.50;;;5.20;99.90;;;;;;5081840;28;20073;-82
2023/10/16 05:02:51;;;;;;;1.67;1.40;;;5.10;99.90;;;;;;5096933;28;20036;-82
2023/10/16 05:05:45;;;;;;;2.53;1.50;;;5.10;99.90;;;;;;5096491;28;20039;-82
2023/10/16 05:13:39;;;;;;;3.90;1.23;;;5.00;99.90;;;;;;5097348;28;20522;-82
2023/10/16 05:16:30;;;;;;;3.27;1.43;;;4.90;99.90;;;;;;5096092;28;20077;-82
2023/10/16 06:14:09;;;;;;;4.00;1.30;;;5.00;99.90;;;;;;5074428;28;20585;-81
2023/10/16 06:14:10;;;;;;;3.40;1.40;;;4.70;99.90;;;;;;5096128;28;20474;-83
2023/10/16 06:16:40;;;;;;;3.10;1.50;;;4.70;99.90;;;;;;5094962;28;20032;-84
2023/10/16 06:19:17;;;;;;;4.90;1.73;;;4.70;99.90;;;;;;5094620;28;20035;-83
2023/10/16 06:21:47;;;;;;;2.83;1.70;;;4.70;99.90;;;;;;5096090;28;20073;-83
2023/10/16 06:24:33;;;;;;;2.37;1.23;;;4.60;99.90;;;;;;5094990;28;20066;-84
2023/10/16 06:27:01;;;;;;;1.83;1.37;;;4.60;99.90;;;;;;5094334;28;20024;-83
2023/10/16 06:29:40;;;;;;;3.37;1.70;;;4.70;99.90;;;;;;5094987;28;20027;-82
2023/10/16 06:32:07;;;;;;;3.27;1.53;;;4.70;99.90;;;;;;5094301;28;20120;-82
2023/10/16 06:34:34;;;;;;;2.20;1.60;;;4.70;99.90;;;;;;5094601;28;20050;-82
2023/10/16 06:37:05;;;;;;;2.70;1.60;;;4.70;99.90;;;;;;5094067;28;20028;-82
2023/10/16 06:39:37;;;;;;;3.03;1.97;;;4.80;99.90;;;;;;5094717;28;20024;-82
2023/10/16 06:42:03;;;;;;;6.07;1.60;;;4.80;99.90;;;;;;5095136;28;20027;-81
2023/10/16 06:44:29;;;;;;;4.60;1.90;;;4.80;99.90;;;;;;5094396;28;20060;-82
2023/10/16 06:46:59;;;;;;;3.37;1.60;;;4.80;99.90;;;;;;5093984;28;20032;-82
2023/10/16 06:49:36;;;;;;;3.37;2.10;;;4.80;99.90;;;;;;5094477;28;20452;-83
2023/10/16 06:52:05;;;;;;;3.80;2.00;;;4.80;99.90;;;;;;5094964;28;20047;-81
2023/10/16 06:54:37;;;;;;;3.07;1.70;;;4.80;99.90;;;;;;5095304;28;20031;-81
2023/10/16 06:57:11;;;;;;;6.05;1.98;;;4.80;99.90;;;;;;5093868;28;20028;-81
2023/10/16 06:59:41;;;;;;;2.90;1.60;;;4.80;99.90;;;;;;5094633;28;20028;-82
2023/10/16 07:02:19;;;;;;;2.77;1.93;;;4.80;99.90;;;;;;5082190;28;20090;-82
2023/10/16 07:04:46;;;;;;;5.70;1.90;;;4.90;99.90;;;;;;5081647;28;20036;-82
2023/10/16 07:07:16;;;;;;;6.27;2.03;;;4.90;99.90;;;;;;5082434;28;20025;-81
2023/10/16 07:09:49;;;;;;;3.07;2.10;;;5.00;99.90;;;;;;5081950;28;20028;-82
2023/10/16 07:12:16;;;;;;;4.77;2.20;;;5.00;99.90;;;;;;5081296;28;20017;-80
2023/10/16 07:14:55;;;;;;;4.27;2.40;;;5.10;99.90;;;;;;5078852;28;20036;-82
2023/10/16 07:17:24;;;;;;;3.63;2.10;;;5.10;99.90;;;;;;5081740;28;20028;-81
2023/10/16 07:19:50;;;;;;;2.60;2.07;;;5.20;99.90;;;;;;5082185;28;20027;-80
2023/10/16 07:22:16;;;;;;;5.47;2.33;;;5.20;99.90;;;;;;5084077;28;20043;-80
2023/10/16 07:24:42;;;;;;;4.27;2.37;;;5.20;99.90;;;;;;5081405;28;20465;-80
2023/10/16 07:27:12;;;;;;;6.13;2.53;;;5.30;99.90;;;;;;5084500;28;20152;-82
2023/10/16 07:29:41;;;;;;;6.40;2.30;;;5.30;99.90;;;;;;5083508;28;20020;-80
2023/10/16 07:32:10;;;;;;;5.27;2.37;;;5.40;99.90;;;;;;5081422;28;20016;-83
2023/10/16 07:34:37;;;;;;;3.73;2.40;;;5.40;99.90;;;;;;5088465;28;20094;-82
2023/10/16 07:37:07;;;;;;;3.90;2.30;;;5.50;99.90;;;;;;5093029;28;20020;-83
2023/10/16 07:39:34;;;;;;;3.50;2.33;;;5.60;99.90;;;;;;5081340;28;20028;-81
2023/10/16 07:42:02;;;;;;;5.70;2.97;;;5.60;99.90;;;;;;5084657;28;20020;-82
2023/10/16 07:44:28;;;;;;;4.63;2.53;;;5.70;99.90;;;;;;5091260;28;20053;-82
2023/10/16 07:46:54;;;;;;;5.43;2.40;;;5.80;99.90;;;;;;5093166;28;20492;-83
2023/10/16 07:49:25;;;;;;;5.80;2.93;;;5.90;99.90;;;;;;5085793;28;20027;-82
2023/10/16 07:51:52;;;;;;;4.83;2.97;;;6.00;99.90;;;;;;5092648;28;20031;-81
2023/10/16 07:54:20;;;;;;;5.47;2.97;;;6.00;99.90;;;;;;5093342;28;20347;-85
2023/10/16 07:56:50;;;;;;;4.80;2.63;;;6.10;99.90;;;;;;5086950;28;20036;-81
2023/10/16 07:59:19;;;;;;;4.03;2.63;;;6.20;99.90;;;;;;5073711;28;20027;-80
2023/10/16 08:01:48;;;;;;;5.90;2.93;;;6.30;99.90;;;;;;5087325;28;20070;-84
2023/10/16 08:06:47;;;;;;;6.00;3.05;;;6.50;99.90;;;;;;5093828;28;20020;-84
2023/10/16 08:11:56;;;;;;;4.55;2.45;;;6.60;99.90;;;;;;5094487;28;20372;-83
2023/10/16 08:14:26;;;;;;;5.23;3.00;;;6.60;99.90;;;;;;5094204;28;20480;-85
2023/10/16 08:16:58;;;;;;;5.47;3.30;;;6.70;99.90;;;;;;5092578;28;20118;-84
2023/10/16 08:19:25;;;;;;;5.97;3.20;;;6.70;99.90;;;;;;5094242;28;20016;-85
2023/10/16 08:21:54;;;;;;;5.95;2.90;;;6.80;99.90;;;;;;5092163;28;20034;-84
2023/10/16 08:24:21;;;;;;;4.82;3.15;;;6.80;99.90;;;;;;5093173;28;20063;-85
2023/10/16 08:26:48;;;;;;;5.53;3.03;;;6.90;99.90;;;;;;5092537;28;20024;-82
2023/10/16 08:31:42;;;;;;;6.65;3.15;;;7.00;99.90;;;;;;5085221;28;20033;-85
2023/10/16 08:34:09;;;;;;;6.40;3.30;;;7.10;99.90;;;;;;5112480;28;20030;-84
2023/10/16 08:36:35;;;;;;;7.43;3.35;;;7.10;99.90;;;;;;5104480;28;20042;-89
2023/10/16 08:39:10;;;;;;;7.45;3.97;;;7.10;99.90;;;;;;5091700;28;20473;-80
2023/10/16 08:41:42;;;;;;;7.97;3.08;;;7.20;99.90;;;;;;5108910;28;20027;-81
2023/10/16 08:44:15;;;;;;;7.25;3.65;;;7.20;99.90;;;;;;5098209;28;20032;-81
2023/10/16 08:49:22;;;;;;;6.60;3.17;;;7.20;99.90;;;;;;5084596;28;20409;-84
2023/10/16 08:52:03;;;;;;;8.30;3.40;;;7.30;99.90;;;;;;5108712;28;20035;-86
2023/10/16 08:57:16;;;;;;;5.68;2.95;;;7.40;99.90;;;;;;5099082;28;20403;-85
2023/10/16 08:59:46;;;;;;;4.28;3.20;;;7.50;99.90;;;;;;5090975;28;20035;-84
2023/10/16 09:02:13;;;;;;;4.30;3.17;;;7.50;99.90;;;;;;5106535;28;20024;-83
2023/10/16 09:04:42;;;;;;;5.10;3.13;;;7.60;99.90;;;;;;5102542;28;20034;-83
2023/10/16 09:07:11;;;;;;;6.72;3.00;;;7.60;99.90;;;;;;5098322;28;20024;-83
2023/10/16 09:09:41;;;;;;;5.53;3.13;;;7.70;99.90;;;;;;5108836;28;20057;-82
2023/10/16 09:12:10;;;;;;;6.45;3.25;;;7.70;99.90;;;;;;5097394;28;20020;-82
2023/10/16 09:14:40;;;;;;;6.40;3.10;;;7.70;99.90;;;;;;5103016;28;20027;-82
2023/10/16 09:17:07;;;;;;;5.57;3.38;;;7.70;99.90;;;;;;5105684;28;20104;-82
2023/10/16 09:19:34;;;;;;;5.40;3.22;;;7.70;99.90;;;;;;5095506;28;20025;-83
2023/10/16 09:22:08;;;;;;;5.85;3.20;;;7.80;99.90;;;;;;5108776;28;20020;-83
2023/10/16 09:24:35;;;;;;;6.32;3.30;;;7.80;99.90;;;;;;5092988;28;20031;-83
2023/10/16 09:27:11;;;;;;;5.80;3.20;;;7.90;99.90;;;;;;5104074;28;20027;-83
2023/10/16 09:29:36;;;;;;;5.60;3.20;;;8.00;99.90;;;;;;5095331;28;20384;-85
2023/10/16 09:32:06;;;;;;;7.18;3.20;;;8.00;99.90;;;;;;5111408;28;20035;-86
2023/10/16 09:34:34;;;;;;;7.50;3.05;;;8.10;99.90;;;;;;5108410;28;20032;-84
2023/10/16 09:37:15;;;;;;;6.80;3.13;;;8.10;99.90;;;;;;5107166;28;20024;-85
2023/10/16 09:39:40;;;;;;;6.35;2.80;;;8.20;99.90;;;;;;5099106;28;20027;-85
2023/10/16 09:42:12;;;;;;;6.22;2.72;;;8.30;99.90;;;;;;5109982;28;20024;-85
2023/10/16 09:44:44;;;;;;;3.70;2.95;;;8.30;99.90;;;;;;5104471;28;20039;-84
2023/10/16 09:47:25;;;;;;;7.55;2.90;;;8.40;99.90;;;;;;5101440;28;20032;-84
2023/10/16 09:49:58;;;;;;;6.18;2.72;;;8.40;99.90;;;;;;5112228;28;20118;-84
2023/10/16 09:52:24;;;;;;;5.90;2.88;;;8.50;99.90;;;;;;5100866;28;20019;-83
2023/10/16 09:54:51;;;;;;;7.70;3.00;;;8.60;99.90;;;;;;5083609;28;20033;-87
2023/10/16 09:57:22;;;;;;;4.43;2.72;;;8.60;99.90;;;;;;5087072;28;20038;-84
2023/10/16 09:59:54;;;;;;;3.35;2.45;;;8.60;99.90;;;;;;5089646;28;20120;-85
2023/10/16 10:02:25;;;;;;;4.93;2.47;;;8.60;99.90;;;;;;5098968;28;20024;-84
2023/10/16 10:04:59;;;;;;;4.03;2.05;;;8.80;99.90;;;;;;5105404;28;20063;-84
2023/10/16 10:07:38;;;;;;;5.03;2.65;;;8.90;99.90;;;;;;5110811;28;20031;-89
2023/10/16 10:13:23;;;;;;;2.88;2.13;;;9.00;99.90;;;;;;5079500;28;20115;-84
2023/10/16 10:15:53;;;;;;;7.88;2.10;;;9.10;99.90;;;;;;5111767;28;20038;-85
2023/10/16 10:18:42;;;;;;;3.72;1.90;;;9.20;99.90;;;;;;5102635;28;20028;-85
2023/10/16 10:21:18;;;;;;;2.15;1.50;;;9.20;99.90;;;;;;5109117;28;20465;-84
2023/10/16 10:23:48;;;;;;;3.10;1.70;;;9.30;99.90;;;;;;5096115;28;20080;-84
2023/10/16 10:26:20;;;;;;;4.03;1.90;;;9.40;99.90;;;;;;5099626;28;20275;-85
2023/10/16 10:29:03;;;;;;;2.60;1.65;;;9.50;99.90;;;;;;5104156;28;20020;-84
2023/10/16 10:31:30;;;;;;;3.63;1.50;;;9.60;99.90;;;;;;5094637;28;20028;-85
2023/10/16 10:33:58;;;;;;;2.90;1.77;;;9.60;99.90;;;;;;5110428;28;20065;-84
2023/10/16 10:36:32;;;;;;;2.63;1.60;;;9.70;99.90;;;;;;5101799;28;20023;-85
2023/10/16 10:39:20;;;;;;;3.47;1.50;;;9.70;99.90;;;;;;5102104;28;20392;-85
2023/10/16 10:41:47;;;;;;;2.88;1.50;;;9.80;99.90;;;;;;5110821;28;20464;-85
2023/10/16 10:44:14;;;;;;;4.03;1.85;;;9.90;99.90;;;;;;5098244;28;20388;-84
2023/10/16 10:46:53;;;;;;;2.10;1.60;;;10.00;99.90;;;;;;5104746;28;20028;-84
2023/10/16 10:49:35;;;;;;;3.90;1.42;;;10.00;99.90;;;;;;5079037;28;20042;-85
2023/10/16 10:52:01;;;;;;;;;;;10.10;99.90;;;;;;5081767;28;20023;-84
2023/10/16 10:54:27;;;;;;;1.90;1.40;;;10.10;99.90;;;;;;5106355;28;19904;-83
2023/10/16 10:56:59;;;;;;;3.33;1.10;;;10.20;99.90;;;;;;5106067;28;20464;-83
2023/10/16 10:59:47;;;;;;;1.92;1.52;;;10.30;99.90;;;;;;5098082;28;20024;-83
2023/10/16 11:04:46;;;;;;;1.90;1.17;;;10.40;99.30;;;;;;5104909;28;20036;-83
2023/10/16 11:07:13;;;;;;;2.53;1.20;;;10.40;99.00;;;;;;5107006;28;20122;-83
2023/10/16 11:09:39;;;;;;;2.17;1.00;;;10.50;99.50;;;;;;5096885;28;20483;-84
2023/10/16 11:12:08;;;;;;;2.80;0.77;;;10.60;98.80;;;;;;5108843;28;20082;-84
2023/10/16 11:14:38;;;;;;;7.68;1.25;;;10.70;98.90;;;;;;5101946;28;20024;-85
2023/10/16 11:17:06;;;;;;;2.47;0.70;;;10.80;98.80;;;;;;5100110;28;20039;-83
2023/10/16 11:19:47;;;;;;;3.20;1.00;;;10.90;98.00;;;;;;5109812;28;20034;-84
2023/10/16 11:22:17;;;;;;;2.30;1.02;;;10.90;97.70;;;;;;5099661;28;20027;-84
2023/10/16 11:24:43;;;;;;;2.35;1.17;;;10.90;97.80;;;;;;5111122;28;20036;-83
2023/10/16 11:27:09;;;;;;;2.10;1.05;;;11.00;97.70;;;;;;5099311;28;20492;-83
2023/10/16 11:29:34;;;;;;;2.65;1.30;;;11.00;97.30;;;;;;5100871;28;20031;-83
2023/10/16 11:32:06;;;;;;;1.90;0.70;;;11.10;97.20;;;;;;5108895;28;20534;-84
2023/10/16 11:34:45;;;;;;;;;;;11.20;96.60;;;;;;5102790;28;20070;-84
2023/10/16 11:37:15;;;;;;;1.90;0.70;;;11.20;95.90;;;;;;5098989;28;19945;-85
2023/10/16 11:39:44;;;;;;;1.88;0.63;;;11.30;95.40;;;;;;5111113;28;20020;-87
2023/10/16 11:42:10;;;;;;;2.22;0.80;;;11.30;94.60;;;;;;5097409;28;20096;-85
2023/10/16 11:44:38;;;;;;;0.73;0.60;;;11.30;94.30;;;;;;5105016;28;20025;-84
2023/10/16 11:47:07;;;;;;;1.60;0.70;;;11.40;95.10;;;;;;5106287;28;20028;-84
2023/10/16 11:49:37;;;;;;;2.85;0.65;;;11.50;95.30;;;;;;5096433;28;20025;-86
2023/10/16 11:52:19;;;;;;;1.40;0.60;;;11.70;95.10;;;;;;5113728;28;20027;-86
2023/10/16 11:54:46;;;;;;;1.50;0.60;;;11.80;95.00;;;;;;5102620;28;20028;-84
2023/10/16 11:57:15;;;;;;;0.77;0.52;;;12.00;93.90;;;;;;5106101;28;20027;-82
2023/10/16 11:59:42;;;;;;;1.10;0.65;;;12.20;94.50;;;;;;5096127;28;20019;-84
2023/10/16 12:02:16;;;;;;;2.60;0.75;;;12.30;93.10;;;;;;5107332;28;20020;-86
2023/10/16 12:04:42;;;;;;;1.40;0.60;;;12.50;93.10;;;;;;5102272;28;20491;-85
2023/10/16 12:07:08;;;;;;;0.90;0.63;;;12.60;92.40;;;;;;5099860;28;20027;-85
2023/10/16 12:09:42;;;;;;;3.08;0.65;;;12.80;92.40;;;;;;5109535;28;20027;-85
2023/10/16 12:12:08;;;;;;;1.75;0.70;;;13.00;92.20;;;;;;5097927;28;20024;-83
2023/10/16 12:14:37;;;;;;;0.50;0.45;;;13.20;91.90;;;;;;5104985;28;20023;-85
2023/10/16 12:17:06;;;;;;;1.60;0.50;;;13.40;91.60;;;;;;5105630;28;20035;-84
2023/10/16 12:19:34;;;;;;;2.00;0.80;;;13.60;90.80;;;;;;5096942;28;20055;-85
2023/10/16 12:22:00;;;;;;;1.15;0.60;;;13.60;90.70;;;;;;5109449;28;20012;-84
2023/10/16 12:24:26;;;;;;;2.53;0.55;;;13.80;90.80;;;;;;5092264;28;20028;-82
2023/10/16 12:26:52;;;;;;;1.25;0.63;;;14.00;91.00;;;;;;5089920;28;20021;-81
2023/10/16 12:29:18;;;;;;;0.70;0.57;;;14.20;90.30;;;;;;5092692;28;20027;-81
2023/10/16 12:31:44;;;;;;;2.20;0.57;;;14.40;90.00;;;;;;5097704;28;20452;-82
2023/10/16 12:34:11;;;;;;;1.90;0.40;;;14.60;89.50;;;;;;5106314;28;20016;-81
2023/10/16 12:36:42;;;;;;;1.40;0.50;;;14.80;87.40;;;;;;5101381;28;20107;-82
2023/10/16 12:39:17;;;;;;;6.82;0.90;;;15.20;87.50;;;;;;5098490;28;20028;-84
2023/10/16 12:41:44;;;;;;;1.50;0.70;;;15.60;86.00;;;;;;5087695;28;20093;-81
2023/10/16 12:44:10;;;;;;;1.17;0.65;;;16.20;84.80;;;;;;5084817;28;20100;-82
2023/10/16 12:46:39;;;;;;;1.02;0.50;;;16.80;82.50;;;;;;5084790;28;20083;-82
2023/10/16 12:49:08;;;;;;;0.93;0.50;;;17.20;80.90;;;;;;5080052;28;20116;-81
2023/10/16 12:51:34;;;;;;;1.50;0.50;;;17.60;80.20;;;;;;5090587;28;20481;-79
2023/10/16 12:54:03;;;;;;;1.40;0.45;;;18.00;78.90;;;;;;5107716;28;20024;-79
2023/10/16 12:56:32;;;;;;;0.30;0.30;;;18.50;77.20;;;;;;5096047;28;20143;-79
2023/10/16 12:59:01;;;;;;;1.60;0.63;;;18.80;75.80;;;;;;5097514;28;20024;-78
2023/10/16 13:01:27;;;;;;;1.58;0.40;;;19.10;73.90;;;;;;5094031;28;20468;-79
2023/10/16 13:03:59;;;;;;;1.60;0.40;;;19.60;73.00;;;;;;5101096;28;20035;-79
2023/10/16 13:06:29;;;;;;;1.63;0.50;;;20.10;72.50;;;;;;5107900;28;20103;-79
2023/10/16 13:09:00;;;;;;;1.60;0.50;;;20.60;69.00;;;;;;5098438;28;20114;-79
2023/10/16 13:11:25;;;;;;;1.98;0.63;;;20.90;67.40;;;;;;5104468;28;20024;-79
2023/10/16 13:13:55;;;;;;;1.30;0.30;;;21.20;65.70;;;;;;5101770;28;20034;-79
2023/10/16 13:16:27;;;;;;;2.08;0.40;;;21.40;65.70;;;;;;5101236;28;20024;-80
2023/10/16 13:18:59;;;;;;;0.63;0.40;;;21.80;63.90;;;;;;5094933;28;20032;-82
2023/10/16 13:21:34;;;;;;;1.52;0.35;;;22.20;62.90;;;;;;5106494;28;20119;-83
2023/10/16 13:24:09;;;;;;;0.63;0.43;;;22.40;62.20;;;;;;5097530;28;20032;-85
2023/10/16 13:26:38;;;;;;;0.47;0.30;;;22.60;61.90;;;;;;5096096;28;20020;-83
2023/10/16 13:29:09;;;;;;;1.42;0.38;;;22.60;60.70;;;;;;5093931;28;20020;-82
2023/10/16 13:31:45;;;;;;;0.50;0.30;;;22.30;59.70;;;;;;5096543;28;20020;-83
2023/10/16 13:34:15;;;;;;;0.98;0.30;;;21.80;60.30;;;;;;5111430;28;20024;-84
2023/10/16 13:37:08;;;;;;;1.38;0.55;;;21.50;61.20;;;;;;5105848;28;20028;-83
2023/10/16 13:39:38;;;;;;;2.30;0.60;;;21.30;61.40;;;;;;5113665;28;20153;-83
2023/10/16 13:42:08;;;;;;;2.90;0.73;;;21.00;61.90;;;;;;5099065;28;20372;-83
2023/10/16 13:44:35;;;;;;;2.45;0.60;;;20.70;61.20;;;;;;5108750;28;20036;-84
2023/10/16 13:47:05;;;;;;;1.30;0.40;;;20.50;61.80;;;;;;5107533;28;20032;-81
2023/10/16 13:49:41;;;;;;;1.35;0.73;;;20.40;62.90;;;;;;5099921;28;20145;-82
2023/10/16 13:52:11;;;;;;;1.13;0.55;;;20.30;64.70;;;;;;5082358;28;20035;-81
2023/10/16 13:54:40;;;;;;;0.75;0.57;;;20.30;63.70;;;;;;5106694;28;20088;-81
2023/10/16 13:57:09;;;;;;;2.17;0.90;;;20.30;64.10;;;;;;5102609;28;20453;-84
2023/10/16 13:59:35;;;;;;;0.98;0.65;;;20.10;64.20;;;;;;5101468;28;20024;-83
2023/10/16 14:02:01;;;;;;;1.15;0.70;;;19.90;64.50;;;;;;5111268;28;20020;-82
2023/10/16 14:04:36;;;;;;;1.42;0.70;;;19.70;65.30;;;;;;5101533;28;20034;-83
2023/10/16 14:07:07;;;;;;;1.83;0.70;;;19.30;65.90;;;;;;5114917;28;20032;-81
2023/10/16 14:09:33;;;;;;;1.98;0.70;;;18.90;66.80;;;;;;5099025;28;20032;-83
2023/10/16 14:12:00;;;;;;;0.85;0.50;;;18.60;66.60;;;;;;5111148;28;20026;-79
2023/10/16 14:14:27;;;;;;;1.83;0.60;;;18.30;67.40;;;;;;5101318;28;20054;-83
2023/10/16 14:17:02;;;;;;;1.23;0.60;;;17.80;68.80;;;;;;5105246;28;20039;-82
2023/10/16 14:19:32;;;;;;;1.50;0.82;;;17.60;69.60;;;;;;5109799;28;20460;-81
2023/10/16 14:21:57;;;;;;;1.63;0.57;;;17.30;69.20;;;;;;5098925;28;20028;-81
2023/10/16 14:24:27;;;;;;;1.30;0.73;;;17.00;69.40;;;;;;5109705;28;20027;-81
2023/10/16 14:26:57;;;;;;;1.17;0.60;;;16.80;70.60;;;;;;5103934;28;20058;-85
2023/10/16 14:29:26;;;;;;;1.58;0.70;;;16.60;72.10;;;;;;5099313;28;20032;-82
2023/10/16 14:31:55;;;;;;;1.67;0.77;;;16.30;72.00;;;;;;5112027;28;20023;-82
2023/10/16 14:34:24;;;;;;;1.17;0.80;;;16.10;72.40;;;;;;5107462;28;20044;-83
2023/10/16 14:36:52;;;;;;;1.23;0.73;;;16.00;73.50;;;;;;5104301;28;20054;-83
2023/10/16 14:39:28;;;;;;;3.88;0.88;;;15.90;73.90;;;;;;5099505;28;20491;-84
2023/10/16 14:41:56;;;;;;;1.65;0.77;;;15.70;74.10;;;;;;5100119;28;20461;-85